sensor_id;sensor_type;location;lat;lon;timestamp;P1;durP1;ratioP1;P2;durP2;ratioP2
14094;SDS011;18096;48.142;16.290;2024-02-23T00:00:26;9.83;;;5.03;;
14094;SDS011;18096;48.142;16.290;2024-02-23T00:02:52;5.57;;;3.60;;
14094;SDS011;18096;48.142;16.290;2024-02-23T00:05:19;5.50;;;3.97;;
14094;SDS011;18096;48.142;16.290;2024-02-23T00:07:45;5.10;;;3.43;;
14094;SDS011;18096;48.142;16.290;2024-02-23T00:10:10;4.53;;;4.13;;
14094;SDS011;18096;48.142;16.290;2024-02-23T00:12:36;7.30;;;3.70;;
14094;SDS011;18096;48.142;16.290;2024-02-23T00:15:02;5.17;;;3.27;;
14094;SDS011;18096;48.142;16.290;2024-02-23T00:17:29;3.83;;;3.53;;
14094;SDS011;18096;48.142;16.290;2024-02-23T00:19:55;3.57;;;3.27;;
14094;SDS011;18096;48.142;16.290;2024-02-23T00:22:20;4.90;;;4.50;;
14094;SDS011;18096;48.142;16.290;2024-02-23T00:24:46;4.83;;;4.43;;
14094;SDS011;18096;48.142;16.290;2024-02-23T00:27:12;5.00;;;4.50;;
14094;SDS011;18096;48.142;16.290;2024-02-23T00:29:37;3.20;;;2.90;;
14094;SDS011;18096;48.142;16.290;2024-02-23T00:32:03;4.07;;;3.77;;
14094;SDS011;18096;48.142;16.290;2024-02-23T00:34:29;4.43;;;3.80;;
14094;SDS011;18096;48.142;16.290;2024-02-23T00:36:56;6.17;;;3.53;;
14094;SDS011;18096;48.142;16.290;2024-02-23T00:39:22;5.57;;;4.03;;
14094;SDS011;18096;48.142;16.290;2024-02-23T00:41:48;7.77;;;4.20;;
14094;SDS011;18096;48.142;16.290;2024-02-23T00:44:14;5.27;;;4.43;;
14094;SDS011;18096;48.142;16.290;2024-02-23T00:46:40;6.07;;;3.43;;
14094;SDS011;18096;48.142;16.290;2024-02-23T00:49:05;3.80;;;3.50;;
14094;SDS011;18096;48.142;16.290;2024-02-23T00:51:31;5.17;;;4.20;;
14094;SDS011;18096;48.142;16.290;2024-02-23T00:53:57;2.97;;;2.63;;
14094;SDS011;18096;48.142;16.290;2024-02-23T00:56:23;5.23;;;3.70;;
14094;SDS011;18096;48.142;16.290;2024-02-23T00:58:50;3.07;;;2.87;;
14094;SDS011;18096;48.142;16.290;2024-02-23T01:01:16;6.63;;;4.00;;
14094;SDS011;18096;48.142;16.290;2024-02-23T01:03:42;13.03;;;4.20;;
14094;SDS011;18096;48.142;16.290;2024-02-23T01:06:07;3.33;;;3.03;;
14094;SDS011;18096;48.142;16.290;2024-02-23T01:08:33;3.07;;;2.87;;
14094;SDS011;18096;48.142;16.290;2024-02-23T01:10:59;9.37;;;3.63;;
14094;SDS011;18096;48.142;16.290;2024-02-23T01:13:25;4.37;;;2.97;;
14094;SDS011;18096;48.142;16.290;2024-02-23T01:15:51;3.33;;;3.03;;
14094;SDS011;18096;48.142;16.290;2024-02-23T01:18:18;3.40;;;2.90;;
14094;SDS011;18096;48.142;16.290;2024-02-23T01:20:44;4.03;;;3.20;;
14094;SDS011;18096;48.142;16.290;2024-02-23T01:23:10;3.73;;;3.37;;
14094;SDS011;18096;48.142;16.290;2024-02-23T01:25:35;3.87;;;3.57;;
14094;SDS011;18096;48.142;16.290;2024-02-23T01:28:02;4.60;;;4.20;;
14094;SDS011;18096;48.142;16.290;2024-02-23T01:30:28;4.10;;;3.70;;
14094;SDS011;18096;48.142;16.290;2024-02-23T01:32:54;5.70;;;4.63;;
14094;SDS011;18096;48.142;16.290;2024-02-23T01:35:19;4.23;;;3.83;;
14094;SDS011;18096;48.142;16.290;2024-02-23T01:37:45;3.47;;;3.17;;
14094;SDS011;18096;48.142;16.290;2024-02-23T01:40:11;6.47;;;4.43;;
14094;SDS011;18096;48.142;16.290;2024-02-23T01:42:37;3.90;;;3.17;;
14094;SDS011;18096;48.142;16.290;2024-02-23T01:45:03;4.17;;;3.43;;
14094;SDS011;18096;48.142;16.290;2024-02-23T01:47:29;3.93;;;3.13;;
14094;SDS011;18096;48.142;16.290;2024-02-23T01:49:56;6.43;;;3.10;;
14094;SDS011;18096;48.142;16.290;2024-02-23T01:52:23;3.00;;;2.70;;
14094;SDS011;18096;48.142;16.290;2024-02-23T01:54:49;5.13;;;3.73;;
14094;SDS011;18096;48.142;16.290;2024-02-23T01:57:16;4.13;;;3.33;;
14094;SDS011;18096;48.142;16.290;2024-02-23T01:59:41;6.13;;;3.20;;
14094;SDS011;18096;48.142;16.290;2024-02-23T02:02:07;4.90;;;3.30;;
14094;SDS011;18096;48.142;16.290;2024-02-23T02:04:34;5.30;;;3.60;;
14094;SDS011;18096;48.142;16.290;2024-02-23T02:06:59;3.40;;;3.00;;
14094;SDS011;18096;48.142;16.290;2024-02-23T02:09:26;5.40;;;3.13;;
14094;SDS011;18096;48.142;16.290;2024-02-23T02:11:52;3.67;;;3.33;;
14094;SDS011;18096;48.142;16.290;2024-02-23T02:14:17;2.97;;;2.70;;
14094;SDS011;18096;48.142;16.290;2024-02-23T02:16:43;5.17;;;3.70;;
14094;SDS011;18096;48.142;16.290;2024-02-23T02:19:12;3.63;;;3.17;;
14094;SDS011;18096;48.142;16.290;2024-02-23T02:21:39;3.53;;;3.20;;
14094;SDS011;18096;48.142;16.290;2024-02-23T02:24:06;3.93;;;3.00;;
14094;SDS011;18096;48.142;16.290;2024-02-23T02:26:32;3.87;;;3.33;;
14094;SDS011;18096;48.142;16.290;2024-02-23T02:28:58;7.03;;;3.43;;
14094;SDS011;18096;48.142;16.290;2024-02-23T02:31:24;3.10;;;2.90;;
14094;SDS011;18096;48.142;16.290;2024-02-23T02:33:50;4.90;;;4.10;;
14094;SDS011;18096;48.142;16.290;2024-02-23T02:36:15;4.47;;;4.07;;
14094;SDS011;18096;48.142;16.290;2024-02-23T02:38:41;3.97;;;3.57;;
14094;SDS011;18096;48.142;16.290;2024-02-23T02:41:06;4.30;;;3.17;;
14094;SDS011;18096;48.142;16.290;2024-02-23T02:43:33;4.23;;;3.27;;
14094;SDS011;18096;48.142;16.290;2024-02-23T02:45:59;4.80;;;3.50;;
14094;SDS011;18096;48.142;16.290;2024-02-23T02:48:24;4.00;;;3.70;;
14094;SDS011;18096;48.142;16.290;2024-02-23T02:50:50;5.00;;;3.77;;
14094;SDS011;18096;48.142;16.290;2024-02-23T02:53:16;4.53;;;4.13;;
14094;SDS011;18096;48.142;16.290;2024-02-23T02:55:42;3.17;;;2.93;;
14094;SDS011;18096;48.142;16.290;2024-02-23T02:58:09;2.73;;;2.47;;
14094;SDS011;18096;48.142;16.290;2024-02-23T03:00:38;7.63;;;3.50;;
14094;SDS011;18096;48.142;16.290;2024-02-23T03:03:03;4.10;;;3.70;;
14094;SDS011;18096;48.142;16.290;2024-02-23T03:05:29;3.83;;;3.50;;
14094;SDS011;18096;48.142;16.290;2024-02-23T03:07:55;5.87;;;4.20;;
14094;SDS011;18096;48.142;16.290;2024-02-23T03:10:20;4.77;;;3.60;;
14094;SDS011;18096;48.142;16.290;2024-02-23T03:12:46;2.93;;;2.60;;
14094;SDS011;18096;48.142;16.290;2024-02-23T03:15:12;3.90;;;2.80;;
14094;SDS011;18096;48.142;16.290;2024-02-23T03:17:37;4.63;;;3.33;;
14094;SDS011;18096;48.142;16.290;2024-02-23T03:20:03;2.97;;;2.77;;
14094;SDS011;18096;48.142;16.290;2024-02-23T03:22:36;4.07;;;3.37;;
14094;SDS011;18096;48.142;16.290;2024-02-23T03:25:02;5.93;;;3.30;;
14094;SDS011;18096;48.142;16.290;2024-02-23T03:27:35;3.63;;;3.33;;
14094;SDS011;18096;48.142;16.290;2024-02-23T03:30:02;4.07;;;3.20;;
14094;SDS011;18096;48.142;16.290;2024-02-23T03:32:28;3.80;;;3.10;;
14094;SDS011;18096;48.142;16.290;2024-02-23T03:34:56;3.50;;;2.93;;
14094;SDS011;18096;48.142;16.290;2024-02-23T03:37:21;6.30;;;2.80;;
14094;SDS011;18096;48.142;16.290;2024-02-23T03:39:47;3.20;;;3.00;;
14094;SDS011;18096;48.142;16.290;2024-02-23T03:42:14;5.03;;;3.40;;
14094;SDS011;18096;48.142;16.290;2024-02-23T03:44:40;2.60;;;2.40;;
14094;SDS011;18096;48.142;16.290;2024-02-23T03:47:07;3.53;;;3.23;;
14094;SDS011;18096;48.142;16.290;2024-02-23T03:49:33;3.13;;;2.93;;
14094;SDS011;18096;48.142;16.290;2024-02-23T03:51:59;4.27;;;3.00;;
14094;SDS011;18096;48.142;16.290;2024-02-23T03:54:25;3.13;;;2.80;;
14094;SDS011;18096;48.142;16.290;2024-02-23T03:56:50;5.43;;;3.23;;
14094;SDS011;18096;48.142;16.290;2024-02-23T03:59:16;4.97;;;3.00;;
14094;SDS011;18096;48.142;16.290;2024-02-23T04:01:42;3.03;;;2.67;;
14094;SDS011;18096;48.142;16.290;2024-02-23T04:04:09;2.23;;;1.83;;
14094;SDS011;18096;48.142;16.290;2024-02-23T04:06:35;2.07;;;1.87;;
14094;SDS011;18096;48.142;16.290;2024-02-23T04:09:01;3.43;;;3.13;;
14094;SDS011;18096;48.142;16.290;2024-02-23T04:11:29;5.63;;;4.50;;
14094;SDS011;18096;48.142;16.290;2024-02-23T04:13:55;3.43;;;3.03;;
14094;SDS011;18096;48.142;16.290;2024-02-23T04:16:24;3.87;;;3.40;;
14094;SDS011;18096;48.142;16.290;2024-02-23T04:18:50;3.97;;;3.67;;
14094;SDS011;18096;48.142;16.290;2024-02-23T04:21:16;3.00;;;2.77;;
14094;SDS011;18096;48.142;16.290;2024-02-23T04:23:45;5.50;;;4.03;;
14094;SDS011;18096;48.142;16.290;2024-02-23T04:26:11;3.00;;;2.70;;
14094;SDS011;18096;48.142;16.290;2024-02-23T04:28:40;2.47;;;2.27;;
14094;SDS011;18096;48.142;16.290;2024-02-23T04:31:10;1.77;;;1.67;;
14094;SDS011;18096;48.142;16.290;2024-02-23T04:33:36;2.50;;;2.40;;
14094;SDS011;18096;48.142;16.290;2024-02-23T04:36:02;1.97;;;1.70;;
14094;SDS011;18096;48.142;16.290;2024-02-23T04:38:32;1.90;;;1.80;;
14094;SDS011;18096;48.142;16.290;2024-02-23T04:41:01;1.70;;;1.37;;
14094;SDS011;18096;48.142;16.290;2024-02-23T04:43:28;1.30;;;1.20;;
14094;SDS011;18096;48.142;16.290;2024-02-23T04:45:53;1.50;;;1.40;;
14094;SDS011;18096;48.142;16.290;2024-02-23T04:48:19;3.03;;;1.20;;
14094;SDS011;18096;48.142;16.290;2024-02-23T04:50:45;1.33;;;1.23;;
14094;SDS011;18096;48.142;16.290;2024-02-23T04:53:10;1.00;;;1.00;;
14094;SDS011;18096;48.142;16.290;2024-02-23T04:55:36;0.90;;;0.90;;
14094;SDS011;18096;48.142;16.290;2024-02-23T04:58:02;2.63;;;1.47;;
14094;SDS011;18096;48.142;16.290;2024-02-23T05:00:28;1.00;;;1.00;;
14094;SDS011;18096;48.142;16.290;2024-02-23T05:02:58;0.70;;;0.70;;
14094;SDS011;18096;48.142;16.290;2024-02-23T05:05:25;0.80;;;0.80;;
14094;SDS011;18096;48.142;16.290;2024-02-23T05:07:50;0.73;;;0.73;;
14094;SDS011;18096;48.142;16.290;2024-02-23T05:10:16;1.63;;;0.90;;
14094;SDS011;18096;48.142;16.290;2024-02-23T05:12:42;0.73;;;0.70;;
14094;SDS011;18096;48.142;16.290;2024-02-23T05:15:08;0.60;;;0.60;;
14094;SDS011;18096;48.142;16.290;2024-02-23T05:17:33;0.80;;;0.80;;
14094;SDS011;18096;48.142;16.290;2024-02-23T05:19:59;0.50;;;0.50;;
14094;SDS011;18096;48.142;16.290;2024-02-23T05:22:25;0.70;;;0.70;;
14094;SDS011;18096;48.142;16.290;2024-02-23T05:24:50;2.60;;;1.07;;
14094;SDS011;18096;48.142;16.290;2024-02-23T05:27:16;0.70;;;0.70;;
14094;SDS011;18096;48.142;16.290;2024-02-23T05:29:41;0.50;;;0.50;;
14094;SDS011;18096;48.142;16.290;2024-02-23T05:32:07;0.60;;;0.60;;
14094;SDS011;18096;48.142;16.290;2024-02-23T05:34:33;0.63;;;0.63;;
14094;SDS011;18096;48.142;16.290;2024-02-23T05:37:00;0.70;;;0.60;;
14094;SDS011;18096;48.142;16.290;2024-02-23T05:39:26;0.50;;;0.50;;
14094;SDS011;18096;48.142;16.290;2024-02-23T05:41:52;0.57;;;0.57;;
14094;SDS011;18096;48.142;16.290;2024-02-23T05:44:18;0.63;;;0.60;;
14094;SDS011;18096;48.142;16.290;2024-02-23T05:46:45;0.60;;;0.60;;
14094;SDS011;18096;48.142;16.290;2024-02-23T05:49:11;1.77;;;1.67;;
14094;SDS011;18096;48.142;16.290;2024-02-23T05:51:37;1.07;;;0.83;;
14094;SDS011;18096;48.142;16.290;2024-02-23T05:54:03;0.50;;;0.50;;
14094;SDS011;18096;48.142;16.290;2024-02-23T05:56:28;0.60;;;0.60;;
14094;SDS011;18096;48.142;16.290;2024-02-23T05:58:54;0.67;;;0.67;;
14094;SDS011;18096;48.142;16.290;2024-02-23T06:01:20;5.40;;;2.27;;
14094;SDS011;18096;48.142;16.290;2024-02-23T06:03:45;1.03;;;0.70;;
14094;SDS011;18096;48.142;16.290;2024-02-23T06:06:11;0.57;;;0.57;;
14094;SDS011;18096;48.142;16.290;2024-02-23T06:08:37;0.60;;;0.60;;
14094;SDS011;18096;48.142;16.290;2024-02-23T06:11:03;0.93;;;0.93;;
14094;SDS011;18096;48.142;16.290;2024-02-23T06:13:29;0.60;;;0.60;;
14094;SDS011;18096;48.142;16.290;2024-02-23T06:15:55;0.60;;;0.60;;
14094;SDS011;18096;48.142;16.290;2024-02-23T06:18:21;0.50;;;0.50;;
14094;SDS011;18096;48.142;16.290;2024-02-23T06:20:47;0.53;;;0.53;;
14094;SDS011;18096;48.142;16.290;2024-02-23T06:23:14;0.50;;;0.50;;
14094;SDS011;18096;48.142;16.290;2024-02-23T06:25:40;0.73;;;0.73;;
14094;SDS011;18096;48.142;16.290;2024-02-23T06:28:06;0.60;;;0.60;;
14094;SDS011;18096;48.142;16.290;2024-02-23T06:30:31;0.50;;;0.50;;
14094;SDS011;18096;48.142;16.290;2024-02-23T06:32:57;0.53;;;0.53;;
14094;SDS011;18096;48.142;16.290;2024-02-23T06:35:23;0.40;;;0.40;;
14094;SDS011;18096;48.142;16.290;2024-02-23T06:37:49;0.50;;;0.50;;
14094;SDS011;18096;48.142;16.290;2024-02-23T06:40:15;0.50;;;0.50;;
14094;SDS011;18096;48.142;16.290;2024-02-23T06:42:41;0.70;;;0.70;;
14094;SDS011;18096;48.142;16.290;2024-02-23T06:45:07;0.80;;;0.80;;
14094;SDS011;18096;48.142;16.290;2024-02-23T06:47:33;0.70;;;0.70;;
14094;SDS011;18096;48.142;16.290;2024-02-23T06:50:00;0.60;;;0.60;;
14094;SDS011;18096;48.142;16.290;2024-02-23T06:52:26;26.77;;;0.97;;
14094;SDS011;18096;48.142;16.290;2024-02-23T06:54:51;12.20;;;0.97;;
14094;SDS011;18096;48.142;16.290;2024-02-23T06:57:17;0.60;;;0.50;;
14094;SDS011;18096;48.142;16.290;2024-02-23T06:59:43;0.40;;;0.40;;
14094;SDS011;18096;48.142;16.290;2024-02-23T07:02:09;0.63;;;0.63;;
14094;SDS011;18096;48.142;16.290;2024-02-23T07:04:35;0.60;;;0.50;;
14094;SDS011;18096;48.142;16.290;2024-02-23T07:07:00;0.87;;;0.70;;
14094;SDS011;18096;48.142;16.290;2024-02-23T07:09:32;0.80;;;0.73;;
14094;SDS011;18096;48.142;16.290;2024-02-23T07:11:58;0.80;;;0.50;;
14094;SDS011;18096;48.142;16.290;2024-02-23T07:14:24;0.40;;;0.40;;
14094;SDS011;18096;48.142;16.290;2024-02-23T07:16:50;2.70;;;0.90;;
14094;SDS011;18096;48.142;16.290;2024-02-23T07:19:17;0.50;;;0.50;;
14094;SDS011;18096;48.142;16.290;2024-02-23T07:21:45;1.23;;;0.63;;
14094;SDS011;18096;48.142;16.290;2024-02-23T07:24:11;0.50;;;0.50;;
14094;SDS011;18096;48.142;16.290;2024-02-23T07:26:37;2.20;;;0.80;;
14094;SDS011;18096;48.142;16.290;2024-02-23T07:29:02;7.70;;;0.80;;
14094;SDS011;18096;48.142;16.290;2024-02-23T07:31:28;0.80;;;0.80;;
14094;SDS011;18096;48.142;16.290;2024-02-23T07:33:54;0.83;;;0.80;;
14094;SDS011;18096;48.142;16.290;2024-02-23T07:36:20;0.60;;;0.60;;
14094;SDS011;18096;48.142;16.290;2024-02-23T07:38:45;0.60;;;0.53;;
14094;SDS011;18096;48.142;16.290;2024-02-23T07:41:12;0.50;;;0.50;;
14094;SDS011;18096;48.142;16.290;2024-02-23T07:43:38;0.60;;;0.60;;
14094;SDS011;18096;48.142;16.290;2024-02-23T07:46:04;0.77;;;0.77;;
14094;SDS011;18096;48.142;16.290;2024-02-23T07:48:33;0.50;;;0.50;;
14094;SDS011;18096;48.142;16.290;2024-02-23T07:50:59;0.70;;;0.50;;
14094;SDS011;18096;48.142;16.290;2024-02-23T07:53:25;0.50;;;0.50;;
14094;SDS011;18096;48.142;16.290;2024-02-23T07:55:51;0.50;;;0.50;;
14094;SDS011;18096;48.142;16.290;2024-02-23T07:58:17;0.60;;;0.60;;
14094;SDS011;18096;48.142;16.290;2024-02-23T08:00:44;1.10;;;1.00;;
14094;SDS011;18096;48.142;16.290;2024-02-23T08:03:09;2.10;;;2.00;;
14094;SDS011;18096;48.142;16.290;2024-02-23T08:05:36;0.60;;;0.60;;
14094;SDS011;18096;48.142;16.290;2024-02-23T08:08:01;0.60;;;0.60;;
14094;SDS011;18096;48.142;16.290;2024-02-23T08:10:27;0.70;;;0.70;;
14094;SDS011;18096;48.142;16.290;2024-02-23T08:19:55;0.60;;;0.53;;
14094;SDS011;18096;48.142;16.290;2024-02-23T08:22:21;27.43;;;2.07;;
14094;SDS011;18096;48.142;16.290;2024-02-23T08:28:13;2.13;;;1.23;;
14094;SDS011;18096;48.142;16.290;2024-02-23T08:30:38;0.67;;;0.67;;
14094;SDS011;18096;48.142;16.290;2024-02-23T08:33:04;0.70;;;0.70;;
14094;SDS011;18096;48.142;16.290;2024-02-23T08:35:30;1.03;;;1.03;;
14094;SDS011;18096;48.142;16.290;2024-02-23T08:37:57;19.37;;;9.63;;
14094;SDS011;18096;48.142;16.290;2024-02-23T08:40:22;2.50;;;1.67;;
14094;SDS011;18096;48.142;16.290;2024-02-23T08:42:48;0.60;;;0.60;;
14094;SDS011;18096;48.142;16.290;2024-02-23T08:45:15;1.07;;;0.60;;
14094;SDS011;18096;48.142;16.290;2024-02-23T08:47:41;0.57;;;0.57;;
14094;SDS011;18096;48.142;16.290;2024-02-23T08:50:07;0.50;;;0.50;;
14094;SDS011;18096;48.142;16.290;2024-02-23T08:52:40;0.50;;;0.50;;
14094;SDS011;18096;48.142;16.290;2024-02-23T08:55:12;1.10;;;0.83;;
14094;SDS011;18096;48.142;16.290;2024-02-23T08:57:38;0.43;;;0.43;;
14094;SDS011;18096;48.142;16.290;2024-02-23T09:00:04;0.40;;;0.40;;
14094;SDS011;18096;48.142;16.290;2024-02-23T09:02:31;0.53;;;0.53;;
14094;SDS011;18096;48.142;16.290;2024-02-23T09:05:03;0.60;;;0.60;;
14094;SDS011;18096;48.142;16.290;2024-02-23T09:07:29;0.70;;;0.60;;
14094;SDS011;18096;48.142;16.290;2024-02-23T09:09:56;0.70;;;0.70;;
14094;SDS011;18096;48.142;16.290;2024-02-23T09:12:22;0.50;;;0.47;;
14094;SDS011;18096;48.142;16.290;2024-02-23T09:14:48;0.40;;;0.40;;
14094;SDS011;18096;48.142;16.290;2024-02-23T09:17:14;0.87;;;0.70;;
14094;SDS011;18096;48.142;16.290;2024-02-23T09:19:40;0.70;;;0.60;;
14094;SDS011;18096;48.142;16.290;2024-02-23T09:22:06;0.77;;;0.50;;
14094;SDS011;18096;48.142;16.290;2024-02-23T09:24:32;0.70;;;0.60;;
14094;SDS011;18096;48.142;16.290;2024-02-23T09:26:58;0.50;;;0.50;;
14094;SDS011;18096;48.142;16.290;2024-02-23T09:29:23;1.27;;;0.90;;
14094;SDS011;18096;48.142;16.290;2024-02-23T09:31:49;1.10;;;0.70;;
14094;SDS011;18096;48.142;16.290;2024-02-23T09:34:15;0.80;;;0.80;;
14094;SDS011;18096;48.142;16.290;2024-02-23T09:36:41;2.30;;;1.27;;
14094;SDS011;18096;48.142;16.290;2024-02-23T09:56:16;0.60;;;0.60;;
14094;SDS011;18096;48.142;16.290;2024-02-23T09:58:44;0.93;;;0.60;;
14094;SDS011;18096;48.142;16.290;2024-02-23T10:01:15;0.73;;;0.70;;
14094;SDS011;18096;48.142;16.290;2024-02-23T10:03:50;0.70;;;0.70;;
14094;SDS011;18096;48.142;16.290;2024-02-23T10:06:16;0.60;;;0.60;;
14094;SDS011;18096;48.142;16.290;2024-02-23T10:08:42;2.20;;;0.60;;
14094;SDS011;18096;48.142;16.290;2024-02-23T10:11:08;0.60;;;0.60;;
14094;SDS011;18096;48.142;16.290;2024-02-23T10:13:33;1.13;;;0.80;;
14094;SDS011;18096;48.142;16.290;2024-02-23T10:15:59;0.67;;;0.67;;
14094;SDS011;18096;48.142;16.290;2024-02-23T10:18:25;0.70;;;0.57;;
14094;SDS011;18096;48.142;16.290;2024-02-23T10:20:51;0.87;;;0.70;;
14094;SDS011;18096;48.142;16.290;2024-02-23T10:23:18;0.97;;;0.80;;
14094;SDS011;18096;48.142;16.290;2024-02-23T10:25:45;1.03;;;0.90;;
14094;SDS011;18096;48.142;16.290;2024-02-23T10:28:10;0.87;;;0.67;;
14094;SDS011;18096;48.142;16.290;2024-02-23T10:30:37;0.77;;;0.67;;
14094;SDS011;18096;48.142;16.290;2024-02-23T10:33:03;0.97;;;0.70;;
14094;SDS011;18096;48.142;16.290;2024-02-23T10:35:31;1.03;;;0.93;;
14094;SDS011;18096;48.142;16.290;2024-02-23T10:38:00;1.07;;;0.70;;
14094;SDS011;18096;48.142;16.290;2024-02-23T10:40:29;1.27;;;1.17;;
14094;SDS011;18096;48.142;16.290;2024-02-23T10:42:56;0.80;;;0.80;;
14094;SDS011;18096;48.142;16.290;2024-02-23T10:45:28;1.77;;;1.60;;
14094;SDS011;18096;48.142;16.290;2024-02-23T10:47:54;1.40;;;1.30;;
14094;SDS011;18096;48.142;16.290;2024-02-23T10:50:22;0.80;;;0.80;;
14094;SDS011;18096;48.142;16.290;2024-02-23T10:52:49;1.57;;;0.70;;
14094;SDS011;18096;48.142;16.290;2024-02-23T10:55:15;0.50;;;0.50;;
14094;SDS011;18096;48.142;16.290;2024-02-23T10:57:43;1.60;;;0.90;;
14094;SDS011;18096;48.142;16.290;2024-02-23T11:00:09;1.60;;;0.70;;
14094;SDS011;18096;48.142;16.290;2024-02-23T11:02:36;0.80;;;0.73;;
14094;SDS011;18096;48.142;16.290;2024-02-23T11:05:08;0.87;;;0.77;;
14094;SDS011;18096;48.142;16.290;2024-02-23T11:07:40;1.73;;;1.20;;
14094;SDS011;18096;48.142;16.290;2024-02-23T11:10:06;0.60;;;0.60;;
14094;SDS011;18096;48.142;16.290;2024-02-23T11:12:34;0.70;;;0.70;;
14094;SDS011;18096;48.142;16.290;2024-02-23T11:15:00;0.50;;;0.50;;
14094;SDS011;18096;48.142;16.290;2024-02-23T11:17:27;0.53;;;0.53;;
14094;SDS011;18096;48.142;16.290;2024-02-23T11:19:54;0.70;;;0.50;;
14094;SDS011;18096;48.142;16.290;2024-02-23T11:22:24;0.40;;;0.40;;
14094;SDS011;18096;48.142;16.290;2024-02-23T11:25:01;1.17;;;1.07;;
14094;SDS011;18096;48.142;16.290;2024-02-23T11:27:34;1.97;;;0.73;;
14094;SDS011;18096;48.142;16.290;2024-02-23T11:30:04;1.10;;;1.10;;
14094;SDS011;18096;48.142;16.290;2024-02-23T11:32:37;0.90;;;0.90;;
14094;SDS011;18096;48.142;16.290;2024-02-23T11:35:08;1.10;;;1.00;;
14094;SDS011;18096;48.142;16.290;2024-02-23T11:40:23;0.90;;;0.90;;
14094;SDS011;18096;48.142;16.290;2024-02-23T11:42:50;1.30;;;0.93;;
14094;SDS011;18096;48.142;16.290;2024-02-23T11:45:17;1.00;;;0.50;;
14094;SDS011;18096;48.142;16.290;2024-02-23T11:47:43;0.90;;;0.90;;
14094;SDS011;18096;48.142;16.290;2024-02-23T11:50:09;0.70;;;0.70;;
14094;SDS011;18096;48.142;16.290;2024-02-23T11:52:38;0.70;;;0.70;;
14094;SDS011;18096;48.142;16.290;2024-02-23T11:55:04;1.67;;;1.00;;
14094;SDS011;18096;48.142;16.290;2024-02-23T11:57:33;0.70;;;0.70;;
14094;SDS011;18096;48.142;16.290;2024-02-23T12:00:01;0.87;;;0.87;;
14094;SDS011;18096;48.142;16.290;2024-02-23T12:02:28;0.80;;;0.80;;
14094;SDS011;18096;48.142;16.290;2024-02-23T12:04:53;0.60;;;0.60;;
14094;SDS011;18096;48.142;16.290;2024-02-23T12:07:19;0.77;;;0.57;;
14094;SDS011;18096;48.142;16.290;2024-02-23T12:09:46;0.70;;;0.70;;
14094;SDS011;18096;48.142;16.290;2024-02-23T12:12:12;0.70;;;0.70;;
14094;SDS011;18096;48.142;16.290;2024-02-23T12:14:41;0.57;;;0.57;;
14094;SDS011;18096;48.142;16.290;2024-02-23T12:17:08;1.23;;;0.80;;
14094;SDS011;18096;48.142;16.290;2024-02-23T12:19:40;0.77;;;0.77;;
14094;SDS011;18096;48.142;16.290;2024-02-23T12:22:06;0.70;;;0.70;;
14094;SDS011;18096;48.142;16.290;2024-02-23T12:24:32;1.10;;;1.00;;
14094;SDS011;18096;48.142;16.290;2024-02-23T12:26:59;0.60;;;0.50;;
14094;SDS011;18096;48.142;16.290;2024-02-23T12:29:25;0.80;;;0.80;;
14094;SDS011;18096;48.142;16.290;2024-02-23T12:32:02;1.43;;;0.87;;
14094;SDS011;18096;48.142;16.290;2024-02-23T12:34:29;4.83;;;0.93;;
14094;SDS011;18096;48.142;16.290;2024-02-23T12:36:55;1.00;;;1.00;;
14094;SDS011;18096;48.142;16.290;2024-02-23T12:39:20;2.00;;;1.20;;
14094;SDS011;18096;48.142;16.290;2024-02-23T12:41:46;1.30;;;1.20;;
14094;SDS011;18096;48.142;16.290;2024-02-23T12:44:12;0.73;;;0.73;;
14094;SDS011;18096;48.142;16.290;2024-02-23T12:46:37;0.80;;;0.80;;
14094;SDS011;18096;48.142;16.290;2024-02-23T12:49:04;1.13;;;1.00;;
14094;SDS011;18096;48.142;16.290;2024-02-23T12:51:29;1.27;;;1.20;;
14094;SDS011;18096;48.142;16.290;2024-02-23T12:53:55;1.50;;;1.23;;
14094;SDS011;18096;48.142;16.290;2024-02-23T12:56:21;0.80;;;0.80;;
14094;SDS011;18096;48.142;16.290;2024-02-23T12:58:46;1.67;;;1.20;;
14094;SDS011;18096;48.142;16.290;2024-02-23T13:01:12;2.27;;;2.17;;
14094;SDS011;18096;48.142;16.290;2024-02-23T13:03:38;3.43;;;0.80;;
14094;SDS011;18096;48.142;16.290;2024-02-23T13:06:07;0.70;;;0.70;;
14094;SDS011;18096;48.142;16.290;2024-02-23T13:08:33;1.47;;;0.93;;
14094;SDS011;18096;48.142;16.290;2024-02-23T13:10:59;1.10;;;1.10;;
14094;SDS011;18096;48.142;16.290;2024-02-23T13:13:25;1.03;;;1.03;;
14094;SDS011;18096;48.142;16.290;2024-02-23T13:15:52;1.37;;;1.23;;
14094;SDS011;18096;48.142;16.290;2024-02-23T13:18:18;1.30;;;1.20;;
14094;SDS011;18096;48.142;16.290;2024-02-23T13:20:44;1.23;;;1.20;;
14094;SDS011;18096;48.142;16.290;2024-02-23T13:23:11;1.63;;;1.40;;
14094;SDS011;18096;48.142;16.290;2024-02-23T13:25:38;1.60;;;1.50;;
14094;SDS011;18096;48.142;16.290;2024-02-23T13:28:04;1.27;;;1.20;;
14094;SDS011;18096;48.142;16.290;2024-02-23T13:30:31;1.40;;;1.30;;
14094;SDS011;18096;48.142;16.290;2024-02-23T13:32:57;1.93;;;1.63;;
14094;SDS011;18096;48.142;16.290;2024-02-23T13:35:23;1.33;;;1.10;;
14094;SDS011;18096;48.142;16.290;2024-02-23T13:37:49;1.53;;;1.33;;
14094;SDS011;18096;48.142;16.290;2024-02-23T13:40:14;1.27;;;1.17;;
14094;SDS011;18096;48.142;16.290;2024-02-23T13:42:40;2.50;;;1.30;;
14094;SDS011;18096;48.142;16.290;2024-02-23T13:45:06;1.17;;;1.07;;
14094;SDS011;18096;48.142;16.290;2024-02-23T13:47:34;1.90;;;1.27;;
14094;SDS011;18096;48.142;16.290;2024-02-23T13:50:00;7.73;;;1.13;;
14094;SDS011;18096;48.142;16.290;2024-02-23T13:52:26;1.27;;;1.00;;
14094;SDS011;18096;48.142;16.290;2024-02-23T13:54:52;1.03;;;1.03;;
14094;SDS011;18096;48.142;16.290;2024-02-23T13:57:18;1.60;;;1.50;;
14094;SDS011;18096;48.142;16.290;2024-02-23T13:59:43;1.40;;;1.27;;
14094;SDS011;18096;48.142;16.290;2024-02-23T14:02:09;1.37;;;1.30;;
14094;SDS011;18096;48.142;16.290;2024-02-23T14:04:35;1.87;;;1.77;;
14094;SDS011;18096;48.142;16.290;2024-02-23T14:07:01;1.50;;;1.40;;
14094;SDS011;18096;48.142;16.290;2024-02-23T14:09:26;1.30;;;1.20;;
14094;SDS011;18096;48.142;16.290;2024-02-23T14:11:52;1.40;;;1.30;;
14094;SDS011;18096;48.142;16.290;2024-02-23T14:14:25;2.33;;;1.23;;
14094;SDS011;18096;48.142;16.290;2024-02-23T14:16:51;1.53;;;1.40;;
14094;SDS011;18096;48.142;16.290;2024-02-23T14:19:17;1.30;;;1.30;;
14094;SDS011;18096;48.142;16.290;2024-02-23T14:21:45;1.13;;;1.03;;
14094;SDS011;18096;48.142;16.290;2024-02-23T14:24:11;1.30;;;1.20;;
14094;SDS011;18096;48.142;16.290;2024-02-23T14:26:37;1.30;;;1.20;;
14094;SDS011;18096;48.142;16.290;2024-02-23T14:29:03;1.03;;;1.03;;
14094;SDS011;18096;48.142;16.290;2024-02-23T14:31:28;1.60;;;1.60;;
14094;SDS011;18096;48.142;16.290;2024-02-23T14:33:54;3.50;;;1.77;;
14094;SDS011;18096;48.142;16.290;2024-02-23T14:36:19;5.77;;;1.30;;
14094;SDS011;18096;48.142;16.290;2024-02-23T14:38:47;1.93;;;1.60;;
14094;SDS011;18096;48.142;16.290;2024-02-23T14:41:12;1.37;;;1.30;;
14094;SDS011;18096;48.142;16.290;2024-02-23T14:43:38;1.20;;;1.10;;
14094;SDS011;18096;48.142;16.290;2024-02-23T14:46:04;1.37;;;1.27;;
14094;SDS011;18096;48.142;16.290;2024-02-23T14:48:30;1.20;;;1.10;;
14094;SDS011;18096;48.142;16.290;2024-02-23T14:50:56;4.80;;;1.40;;
14094;SDS011;18096;48.142;16.290;2024-02-23T14:53:22;1.30;;;1.30;;
14094;SDS011;18096;48.142;16.290;2024-02-23T14:55:48;2.60;;;1.50;;
14094;SDS011;18096;48.142;16.290;2024-02-23T14:58:14;1.93;;;1.30;;